Time;durP1;ratioP1;P1;durP2;ratioP2;P2;SDS_P1;SDS_P2;PMS_P1;PMS_P2;Temp;Humidity;BMP_temperature;BMP_pressure;BME280_temperature;BME280_humidity;BME280_pressure;Samples;Min_cycle;Max_cycle;Signal;HPM_P1;HPM_P2
2021/06/21 00:00:25;;;;;;;26.02;8.32;;;;;;;20.25;76.89;94777.44;5091654;28;20040;-75
2021/06/21 00:03:11;;;;;;;26.38;8.75;;;;;;;20.16;77.45;94771.53;5089603;28;20297;-76
2021/06/21 00:05:36;;;;;;;28.27;8.48;;;;;;;20.14;77.43;94781.78;5089938;28;20044;-75
2021/06/21 00:08:02;;;;;;;28.52;8.65;;;;;;;20.10;77.50;94785.47;5090991;28;20044;-75
2021/06/21 00:10:28;;;;;;;27.02;8.68;;;;;;;20.09;77.74;94792.72;5088820;28;20055;-75
2021/06/21 00:12:53;;;;;;;24.33;8.25;;;;;;;20.03;77.79;94802.16;5090998;28;20040;-75
2021/06/21 00:15:21;;;;;;;31.45;8.68;;;;;;;20.03;77.83;94802.91;5091326;28;20043;-75
2021/06/21 00:17:48;;;;;;;22.33;8.40;;;;;;;20.08;77.70;94799.19;5080987;28;20462;-75
2021/06/21 00:20:15;;;;;;;24.23;8.52;;;;;;;20.08;77.84;94801.84;5088641;28;20036;-75
2021/06/21 00:22:42;;;;;;;23.73;8.00;;;;;;;20.04;77.76;94809.81;5106133;28;20082;-75
2021/06/21 00:25:09;;;;;;;23.58;7.90;;;;;;;20.03;77.86;94818.16;5086788;28;20099;-75
2021/06/21 00:27:34;;;;;;;26.98;7.78;;;;;;;20.01;77.69;94825.72;5080578;28;20114;-75
2021/06/21 00:30:02;;;;;;;28.40;8.20;;;;;;;19.97;77.98;94814.19;5069590;28;20053;-75
2021/06/21 00:32:27;;;;;;;27.85;7.72;;;;;;;19.99;77.89;94822.66;5081570;28;20119;-74
2021/06/21 00:34:53;;;;;;;21.55;7.50;;;;;;;20.00;77.61;94803.59;5087002;28;20068;-75
2021/06/21 00:37:19;;;;;;;21.45;7.63;;;;;;;19.96;77.59;94794.72;5084106;28;20047;-75
2021/06/21 00:39:45;;;;;;;26.63;7.40;;;;;;;19.95;77.88;94789.75;5078442;28;20210;-75
2021/06/21 00:42:10;;;;;;;26.88;8.13;;;;;;;19.82;78.45;94791.72;5070453;28;20055;-75
2021/06/21 00:44:36;;;;;;;28.27;7.65;;;;;;;19.79;78.45;94793.19;5093836;28;20497;-75
2021/06/21 00:47:01;;;;;;;25.83;8.05;;;;;;;19.81;78.35;94790.19;5090034;28;20480;-75
2021/06/21 00:49:27;;;;;;;23.50;7.65;;;;;;;19.78;78.58;94783.59;5088332;28;20529;-75
2021/06/21 00:51:53;;;;;;;27.17;8.32;;;;;;;19.70;78.58;94779.22;5107042;28;20039;-75
2021/06/21 00:54:20;;;;;;;20.02;7.45;;;;;;;19.54;79.25;94766.66;5110952;28;20050;-75
2021/06/21 00:56:46;;;;;;;23.75;8.73;;;;;;;19.47;79.44;94761.16;5090302;28;20047;-75
2021/06/21 00:59:11;;;;;;;22.27;7.40;;;;;;;19.42;79.90;94774.75;5089041;28;20050;-75
2021/06/21 01:01:37;;;;;;;23.15;7.65;;;;;;;19.41;79.88;94789.22;5100980;28;20459;-75
2021/06/21 01:04:02;;;;;;;27.88;7.70;;;;;;;19.36;80.09;94776.13;5107401;28;20066;-75
2021/06/21 01:06:28;;;;;;;27.33;7.78;;;;;;;19.33;79.74;94761.56;5085291;28;20532;-75
2021/06/21 01:08:55;;;;;;;32.03;7.93;;;;;;;19.33;79.97;94755.47;5075529;28;20040;-75
2021/06/21 01:11:24;;;;;;;23.58;8.15;;;;;;;19.25;79.58;94743.06;5099030;28;20040;-74
2021/06/21 01:14:42;;;;;;;24.98;7.80;;;;;;;19.14;80.40;94743.59;5091954;28;20517;-75
2021/06/21 01:17:22;;;;;;;32.65;7.78;;;;;;;19.02;80.89;94736.44;5080513;28;20054;-75
2021/06/21 01:19:50;;;;;;;23.25;8.32;;;;;;;18.97;81.27;94765.22;5070068;28;20493;-75
2021/06/21 01:22:40;;;;;;;21.00;8.25;;;;;;;18.96;81.20;94763.69;5089515;28;20429;-75
2021/06/21 01:25:42;;;;;;;21.33;7.00;;;;;;;18.95;81.03;94752.25;5090028;28;20040;-75
2021/06/21 01:28:47;;;;;;;18.75;7.15;;;;;;;18.92;80.84;94730.81;5093732;28;20036;-75
2021/06/21 01:31:18;;;;;;;29.75;7.63;;;;;;;18.79;81.62;94743.41;5080819;28;20052;-75
2021/06/21 01:33:46;;;;;;;19.60;7.28;;;;;;;18.87;80.77;94737.94;5090368;28;20093;-74
2021/06/21 01:36:15;;;;;;;23.98;7.05;;;;;;;18.81;80.45;94736.63;5089176;28;20032;-74
2021/06/21 01:38:52;;;;;;;21.73;8.20;;;;;;;18.80;80.75;94745.72;5081524;28;20218;-75
2021/06/21 01:41:28;;;;;;;22.23;7.85;;;;;;;18.68;81.43;94767.09;5077727;28;20389;-75
2021/06/21 01:43:56;;;;;;;22.63;7.35;;;;;;;18.73;81.54;94814.06;5101334;28;20066;-75
2021/06/21 01:46:28;;;;;;;24.75;7.72;;;;;;;18.62;82.05;94819.06;5088414;28;20044;-75
2021/06/21 01:48:58;;;;;;;24.30;8.98;;;;;;;18.56;82.54;94809.78;5070991;28;20114;-74
2021/06/21 01:51:25;;;;;;;25.23;7.35;;;;;;;18.59;82.15;94790.44;5074114;28;20086;-73
2021/06/21 01:53:56;;;;;;;25.75;7.90;;;;;;;18.56;82.62;94788.47;5090758;28;20036;-75
2021/06/21 01:56:26;;;;;;;25.30;8.52;;;;;;;18.53;82.88;94790.69;5103206;28;20063;-74
2021/06/21 01:58:53;;;;;;;24.85;8.05;;;;;;;18.53;82.76;94785.38;5088343;28;20098;-74
2021/06/21 02:01:20;;;;;;;27.05;7.82;;;;;;;18.62;82.83;94803.09;5095527;28;20484;-74
2021/06/21 02:03:53;;;;;;;22.85;8.00;;;;;;;18.66;82.77;94814.63;5101832;28;20051;-74
2021/06/21 02:06:20;;;;;;;23.80;8.43;;;;;;;18.73;82.83;94814.81;5087611;28;20032;-75
2021/06/21 02:08:49;;;;;;;24.13;9.30;;;;;;;18.66;82.86;94801.28;5084935;28;20087;-74
2021/06/21 02:11:15;;;;;;;23.73;7.60;;;;;;;18.77;82.52;94794.38;5079488;28;20036;-74
2021/06/21 02:13:43;;;;;;;28.65;7.80;;;;;;;18.70;83.05;94799.50;5099872;28;20043;-75
2021/06/21 02:16:10;;;;;;;21.75;7.70;;;;;;;18.73;82.71;94804.16;5104233;28;20055;-74
2021/06/21 02:18:36;;;;;;;24.55;7.68;;;;;;;18.70;83.07;94804.84;5090356;28;20137;-74
2021/06/21 02:21:03;;;;;;;25.70;8.60;;;;;;;18.75;82.69;94793.97;5093460;28;20451;-74
2021/06/21 02:23:29;;;;;;;24.42;7.80;;;;;;;18.75;82.71;94801.94;5101515;28;20067;-74
2021/06/21 02:25:57;;;;;;;25.13;7.72;;;;;;;18.81;82.44;94799.81;5104244;28;20505;-74
2021/06/21 02:28:25;;;;;;;24.63;7.45;;;;;;;18.82;82.27;94794.16;5087267;28;20541;-74
2021/06/21 02:30:54;;;;;;;25.92;7.40;;;;;;;18.77;82.26;94797.03;5099704;28;20095;-74
2021/06/21 02:33:19;;;;;;;17.55;6.43;;;;;;;18.73;82.08;94801.50;5094691;28;20561;-74
2021/06/21 02:35:46;;;;;;;20.85;6.93;;;;;;;18.72;82.17;94797.31;5097625;28;20065;-74
2021/06/21 02:38:13;;;;;;;23.50;6.95;;;;;;;18.72;82.23;94797.31;5096103;27;20363;-74
2021/06/21 02:40:39;;;;;;;21.67;6.93;;;;;;;18.72;81.95;94802.63;5085908;28;20059;-74
2021/06/21 02:43:05;;;;;;;19.75;6.57;;;;;;;18.71;81.83;94806.41;5099072;28;20043;-74
2021/06/21 02:45:31;;;;;;;22.52;7.13;;;;;;;18.75;81.89;94801.94;5111878;28;20076;-74
2021/06/21 02:47:57;;;;;;;24.92;6.68;;;;;;;18.72;81.67;94813.28;5095779;28;20160;-74
2021/06/21 02:50:23;;;;;;;19.42;6.72;;;;;;;18.68;81.78;94818.50;5096318;28;20447;-74
2021/06/21 02:53:16;;;;;;;23.63;6.93;;;;;;;18.66;81.99;94819.94;5096784;28;20047;-74
2021/06/21 02:56:03;;;;;;;22.88;6.78;;;;;;;18.68;81.80;94823.06;5081740;28;20044;-74
2021/06/21 02:58:35;;;;;;;18.33;6.53;;;;;;;18.65;81.86;94829.09;5096958;28;20040;-75
2021/06/21 03:01:04;;;;;;;27.65;7.07;;;;;;;18.60;81.98;94831.97;5095303;28;20036;-75
2021/06/21 03:03:33;;;;;;;20.85;6.55;;;;;;;18.64;81.71;94830.19;5092295;28;20170;-74
2021/06/21 03:06:01;;;;;;;25.17;6.63;;;;;;;18.60;81.69;94831.97;5093681;28;20065;-74
2021/06/21 03:08:29;;;;;;;20.85;6.60;;;;;;;18.64;81.48;94832.84;5090500;28;20051;-74
2021/06/21 03:10:56;;;;;;;20.17;6.57;;;;;;;18.67;81.21;94832.16;5093066;28;20040;-75
2021/06/21 03:13:22;;;;;;;21.05;6.68;;;;;;;18.63;81.47;94836.63;5092370;28;20059;-75
2021/06/21 03:15:51;;;;;;;23.75;6.90;;;;;;;18.66;81.17;94843.94;5094656;28;20497;-74
2021/06/21 03:18:20;;;;;;;19.58;6.15;;;;;;;18.65;81.28;94855.72;5087287;28;20040;-74
2021/06/21 03:20:56;;;;;;;21.83;6.88;;;;;;;18.62;81.31;94861.69;5096052;28;20059;-74
2021/06/21 03:23:24;;;;;;;20.48;6.20;;;;;;;18.60;81.23;94864.72;5092123;28;20101;-75
2021/06/21 03:25:54;;;;;;;17.45;5.97;;;;;;;18.65;81.16;94861.06;5094356;28;20039;-74
2021/06/21 03:28:22;;;;;;;20.67;5.78;;;;;;;18.65;80.75;94877.03;5080870;28;20048;-74
2021/06/21 03:30:55;;;;;;;21.88;6.20;;;;;;;18.69;80.57;94873.38;5091988;28;20040;-74
2021/06/21 03:33:21;;;;;;;13.77;5.70;;;;;;;18.73;80.34;94878.78;5108815;28;20043;-75
2021/06/21 03:35:47;;;;;;;21.17;5.70;;;;;;;18.74;79.72;94884.91;5086841;28;20040;-75
2021/06/21 03:38:22;;;;;;;16.63;5.50;;;;;;;18.78;79.78;94894.56;5089841;28;20493;-74
2021/06/21 03:40:52;;;;;;;23.65;5.25;;;;;;;18.79;79.20;94901.44;5090590;28;20573;-74
2021/06/21 03:43:20;;;;;;;20.60;5.78;;;;;;;18.75;79.27;94903.22;5091142;28;20420;-74
2021/06/21 03:45:50;;;;;;;18.20;5.47;;;;;;;18.80;78.66;94910.97;5093365;28;20046;-74
2021/06/21 03:48:17;;;;;;;13.65;4.57;;;;;;;18.85;78.27;94918.75;5091485;28;20036;-74
2021/06/21 03:50:43;;;;;;;20.95;4.80;;;;;;;18.84;77.84;94911.84;5092187;28;20036;-74
2021/06/21 03:53:09;;;;;;;16.88;4.97;;;;;;;18.84;77.79;94917.19;5093155;28;20035;-74
2021/06/21 03:55:35;;;;;;;20.75;5.53;;;;;;;18.88;77.62;94917.34;5108130;28;20492;-73
2021/06/21 03:58:02;;;;;;;14.60;4.97;;;;;;;18.85;77.99;94918.75;5095553;28;20654;-74
2021/06/21 04:00:30;;;;;;;15.93;4.35;;;;;;;18.94;77.38;94923.22;5076194;28;20140;-74
2021/06/21 04:02:57;;;;;;;15.13;4.82;;;;;;;18.96;77.36;94918.31;5091684;28;20062;-74
2021/06/21 04:05:23;;;;;;;18.23;4.85;;;;;;;18.96;77.29;94923.66;5100436;28;20032;-74
2021/06/21 04:07:49;;;;;;;16.85;5.00;;;;;;;18.99;77.08;94918.44;5090275;28;20049;-74
2021/06/21 04:10:18;;;;;;;15.57;4.80;;;;;;;19.00;76.94;94933.28;5089738;28;20575;-74
2021/06/21 04:12:46;;;;;;;10.38;4.40;;;;;;;19.02;76.85;94935.63;5091304;28;20044;-74
2021/06/21 04:15:13;;;;;;;17.65;4.72;;;;;;;18.94;76.69;94937.31;5094796;28;20036;-74
2021/06/21 04:17:39;;;;;;;18.00;4.97;;;;;;;19.01;76.44;94950.84;5084165;28;20037;-74
2021/06/21 04:20:14;;;;;;;12.75;3.80;;;;;;;19.00;76.63;94951.19;5090500;28;20036;-74
2021/06/21 04:22:40;;;;;;;18.38;4.40;;;;;;;19.06;75.63;94955.16;5090781;28;20032;-74
2021/06/21 04:25:08;;;;;;;16.60;4.57;;;;;;;19.13;75.38;94957.28;5092096;28;20044;-74
2021/06/21 04:27:34;;;;;;;19.83;4.40;;;;;;;19.15;75.68;94961.16;5100709;28;20485;-74
2021/06/21 04:30:00;;;;;;;13.45;3.95;;;;;;;19.20;74.20;94958.25;5090239;28;20055;-74
2021/06/21 04:32:26;;;;;;;17.95;4.32;;;;;;;19.19;74.98;94959.38;5093266;28;20044;-74
2021/06/21 04:34:51;;;;;;;17.15;4.40;;;;;;;19.26;74.39;94963.34;5079380;28;20106;-74
2021/06/21 04:37:17;;;;;;;16.52;4.40;;;;;;;19.21;74.47;94962.47;5093430;28;20123;-74
2021/06/21 04:39:43;;;;;;;16.08;4.22;;;;;;;19.17;75.19;94961.59;5092055;28;20100;-74
2021/06/21 04:42:08;;;;;;;14.63;4.72;;;;;;;19.13;74.77;94966.03;5091954;28;20405;-74
2021/06/21 04:44:34;;;;;;;17.50;4.72;;;;;;;19.15;74.63;94974.50;5088585;28;20032;-74
2021/06/21 04:47:00;;;;;;;15.43;4.60;;;;;;;19.14;75.38;94978.28;5092227;28;20059;-74
2021/06/21 04:49:25;;;;;;;16.27;4.40;;;;;;;19.16;75.02;94967.25;5105929;28;20043;-74
2021/06/21 04:51:51;;;;;;;14.25;4.20;;;;;;;19.17;74.50;94966.91;5107359;28;20425;-74
2021/06/21 04:54:18;;;;;;;16.63;4.97;;;;;;;19.08;75.56;94963.63;5106024;28;20366;-74
2021/06/21 04:56:44;;;;;;;16.33;4.57;;;;;;;19.09;75.44;94964.38;5076647;28;20033;-74
2021/06/21 04:59:09;;;;;;;12.80;4.40;;;;;;;19.14;75.50;94961.50;5083693;28;20043;-74
2021/06/21 05:01:35;;;;;;;15.40;4.30;;;;;;;19.19;75.77;94962.03;5090032;28;20044;-74
2021/06/21 05:04:01;;;;;;;14.23;4.72;;;;;;;19.30;74.56;94958.91;5085858;28;20041;-74
2021/06/21 05:06:28;;;;;;;15.30;4.45;;;;;;;19.36;74.46;94960.19;5096558;28;20100;-74
2021/06/21 05:08:54;;;;;;;12.43;4.40;;;;;;;19.46;73.63;94950.94;5086657;28;20059;-74
2021/06/21 05:11:20;;;;;;;12.80;4.68;;;;;;;19.50;73.99;94960.59;5089885;28;20090;-75
2021/06/21 05:13:45;;;;;;;18.40;4.28;;;;;;;19.61;72.01;94952.88;5096983;28;20036;-74
2021/06/21 05:16:11;;;;;;;12.23;4.28;;;;;;;19.63;73.22;94965.88;5093178;28;20412;-74
2021/06/21 05:18:37;;;;;;;13.52;4.20;;;;;;;19.66;72.78;94970.53;5073710;28;20052;-74
2021/06/21 05:21:04;;;;;;;13.15;3.58;;;;;;;19.63;72.20;94969.31;5090819;28;20036;-74
2021/06/21 05:23:29;;;;;;;15.88;4.03;;;;;;;19.60;73.03;94971.91;5095175;28;20036;-74
2021/06/21 05:25:55;;;;;;;20.83;4.38;;;;;;;19.60;73.45;94982.59;5095414;28;20083;-75
2021/06/21 05:28:20;;;;;;;11.23;4.40;;;;;;;19.61;73.25;94978.78;5089966;28;20512;-75
2021/06/21 05:30:46;;;;;;;17.40;4.45;;;;;;;19.60;72.55;94972.69;5106574;28;20071;-75
2021/06/21 05:33:13;;;;;;;14.15;4.30;;;;;;;19.59;72.52;94970.34;5099718;28;20044;-74
2021/06/21 05:35:39;;;;;;;13.18;3.90;;;;;;;19.54;71.68;94964.13;5071588;28;20050;-74
2021/06/21 05:38:04;;;;;;;13.55;4.20;;;;;;;19.49;72.07;94967.03;5090171;28;20175;-75
2021/06/21 05:40:30;;;;;;;16.88;4.68;;;;;;;19.47;72.49;94969.28;5092641;28;20055;-75
2021/06/21 05:42:55;;;;;;;11.50;4.18;;;;;;;19.45;72.60;94966.19;5093014;28;20036;-75
2021/06/21 05:45:21;;;;;;;12.30;3.83;;;;;;;19.54;72.49;94964.13;5092233;28;20044;-75
2021/06/21 05:47:47;;;;;;;10.80;3.60;;;;;;;19.65;70.72;94958.31;5088055;28;20048;-74
2021/06/21 05:50:13;;;;;;;11.95;3.95;;;;;;;19.74;70.38;94964.28;5094036;28;20035;-74
2021/06/21 05:52:38;;;;;;;9.93;3.78;;;;;;;19.72;70.40;94974.50;5111604;28;20039;-74
2021/06/21 05:55:06;;;;;;;14.85;3.80;;;;;;;19.83;70.03;94970.25;5093564;28;20043;-74
2021/06/21 05:57:32;;;;;;;12.55;3.90;;;;;;;19.97;68.46;94969.06;5093186;28;20043;-74
2021/06/21 05:59:58;;;;;;;12.30;3.80;;;;;;;20.14;67.64;94968.78;5094354;28;20040;-74
2021/06/21 06:02:25;;;;;;;12.73;3.22;;;;;;;20.18;66.23;94958.94;5093721;28;20115;-74
2021/06/21 06:04:50;;;;;;;13.50;3.47;;;;;;;20.19;68.02;94955.13;5112054;28;20123;-73
2021/06/21 06:07:17;;;;;;;15.07;3.55;;;;;;;20.30;67.25;94949.28;5109184;28;20114;-74
2021/06/21 06:09:44;;;;;;;13.55;3.88;;;;;;;20.33;67.57;94937.91;5094621;28;20115;-73
2021/06/21 06:12:10;;;;;;;13.15;3.33;;;;;;;20.33;65.45;94943.25;5100384;28;20051;-74
2021/06/21 06:14:36;;;;;;;16.05;3.70;;;;;;;20.38;64.84;94951.00;5104640;28;20043;-74
2021/06/21 06:17:01;;;;;;;12.65;3.33;;;;;;;20.55;63.06;94950.63;5102659;28;20047;-74
2021/06/21 06:19:27;;;;;;;11.00;2.88;;;;;;;20.62;62.51;94943.94;5100483;28;20044;-74
2021/06/21 06:21:52;;;;;;;14.38;3.15;;;;;;;20.67;61.30;94949.03;5100926;28;20068;-74
2021/06/21 06:24:18;;;;;;;16.13;3.40;;;;;;;20.66;61.09;94944.75;5093208;28;20403;-74
2021/06/21 06:26:44;;;;;;;11.15;2.97;;;;;;;20.67;62.01;94946.34;5093980;28;20040;-74
2021/06/21 06:29:14;;;;;;;11.60;3.10;;;;;;;20.58;62.14;94949.94;5072954;28;20044;-74
2021/06/21 06:31:44;;;;;;;16.02;3.20;;;;;;;20.59;61.50;94956.84;5072693;28;20490;-74
2021/06/21 06:34:10;;;;;;;12.23;2.88;;;;;;;20.71;61.54;94963.25;5072753;28;20059;-74
2021/06/21 06:36:35;;;;;;;10.63;2.70;;;;;;;20.73;62.22;94955.66;5077769;28;20115;-74
2021/06/21 06:39:01;;;;;;;11.93;3.20;;;;;;;20.85;61.52;94954.78;5091356;28;20458;-74
2021/06/21 06:41:26;;;;;;;11.88;3.08;;;;;;;20.90;61.51;94955.28;5091650;28;20040;-74
2021/06/21 06:43:53;;;;;;;13.15;3.03;;;;;;;20.98;61.14;94950.84;5092600;28;20496;-74
2021/06/21 06:46:19;;;;;;;18.50;3.67;;;;;;;20.97;59.87;94953.88;5091689;28;20044;-74
2021/06/21 06:48:44;;;;;;;18.77;3.25;;;;;;;20.98;59.39;94950.09;5091724;28;20097;-74
2021/06/21 06:51:10;;;;;;;11.35;2.92;;;;;;;20.97;59.06;94948.53;5100047;28;20040;-74
2021/06/21 06:53:41;;;;;;;12.05;3.13;;;;;;;21.10;59.64;94949.94;5111726;28;20462;-74
2021/06/21 06:58:51;;;;;;;10.70;3.10;;;;;;;21.20;58.26;94946.72;5091923;28;20047;-74
2021/06/21 07:01:17;;;;;;;11.45;3.15;;;;;;;21.19;57.49;94939.84;5091281;28;20048;-74
2021/06/21 07:03:43;;;;;;;11.75;3.08;;;;;;;21.15;57.94;94933.63;5098033;28;20712;-75
2021/06/21 07:06:08;;;;;;;14.65;3.33;;;;;;;21.06;57.48;94933.84;5089938;28;20089;-74
2021/06/21 07:08:34;;;;;;;17.15;2.70;;;;;;;21.07;57.17;94939.94;5093313;28;20417;-75
2021/06/21 07:11:00;;;;;;;9.40;3.38;;;;;;;21.13;56.73;94935.88;5096141;28;20122;-75
2021/06/21 07:13:25;;;;;;;15.20;3.00;;;;;;;21.11;56.38;94949.59;5111268;28;20040;-74
2021/06/21 07:15:51;;;;;;;9.57;2.60;;;;;;;21.26;57.09;94949.88;5101037;28;20066;-74
2021/06/21 07:18:16;;;;;;;13.85;2.60;;;;;;;21.40;55.20;94954.75;5090396;28;20040;-74
2021/06/21 07:20:42;;;;;;;14.38;3.10;;;;;;;21.45;54.18;94951.81;5088322;28;20040;-74
2021/06/21 07:23:08;;;;;;;11.32;2.67;;;;;;;21.53;53.90;94964.22;5089246;28;20405;-73
2021/06/21 07:25:34;;;;;;;12.45;2.78;;;;;;;21.50;54.50;94951.50;5089697;28;20420;-74
2021/06/21 07:28:00;;;;;;;12.77;2.90;;;;;;;21.53;53.94;94947.38;5088065;28;20175;-74
2021/06/21 07:30:25;;;;;;;8.38;2.58;;;;;;;21.46;53.51;94950.66;5091197;28;20043;-74
2021/06/21 07:32:51;;;;;;;10.73;2.78;;;;;;;21.62;53.92;94940.69;5091780;28;20040;-74
2021/06/21 07:35:17;;;;;;;10.90;2.65;;;;;;;21.58;54.51;94937.16;5091367;28;20036;-73
2021/06/21 07:37:42;;;;;;;12.63;2.53;;;;;;;21.73;54.68;94940.13;5082260;28;20036;-74
2021/06/21 07:40:08;;;;;;;12.35;2.60;;;;;;;21.74;53.21;94941.66;5089424;28;20044;-76
2021/06/21 07:42:34;;;;;;;15.63;3.05;;;;;;;21.79;52.63;94938.69;5090946;28;20108;-76
2021/06/21 07:45:00;;;;;;;10.93;2.50;;;;;;;21.78;52.81;94921.09;5090639;28;20469;-76
2021/06/21 07:47:25;;;;;;;14.70;2.90;;;;;;;21.77;53.55;94920.28;5086837;28;20048;-76
2021/06/21 07:49:51;;;;;;;14.63;2.80;;;;;;;21.97;52.73;94929.06;5093783;28;20040;-76
2021/06/21 07:52:16;;;;;;;11.85;2.42;;;;;;;21.89;52.76;94924.69;5096593;28;20089;-75
2021/06/21 07:54:42;;;;;;;12.90;2.70;;;;;;;21.77;51.28;94924.88;5102029;28;20088;-76
2021/06/21 07:57:08;;;;;;;13.55;2.88;;;;;;;21.84;52.37;94922.34;5095406;28;20485;-75
2021/06/21 07:59:33;;;;;;;7.93;2.58;;;;;;;22.01;51.86;94923.00;5090741;28;20032;-75
2021/06/21 08:01:59;;;;;;;11.77;2.83;;;;;;;21.89;51.29;94919.34;5091385;28;20040;-76
2021/06/21 08:04:25;;;;;;;12.70;2.80;;;;;;;21.88;52.50;94917.81;5087288;28;20444;-75
2021/06/21 08:06:50;;;;;;;13.45;2.80;;;;;;;22.01;52.23;94918.41;5091572;28;20123;-75
2021/06/21 08:09:16;;;;;;;17.58;2.90;;;;;;;22.20;51.52;94925.63;5095984;28;20036;-75
2021/06/21 08:11:41;;;;;;;10.10;2.58;;;;;;;22.22;50.68;94922.56;5093117;28;20044;-75
2021/06/21 08:14:07;;;;;;;9.32;2.70;;;;;;;22.12;49.97;94919.38;5107888;28;20044;-76
2021/06/21 08:16:32;;;;;;;7.13;2.83;;;;;;;22.13;50.07;94906.75;5091625;28;20040;-75
2021/06/21 08:18:58;;;;;;;10.57;2.42;;;;;;;22.29;48.93;94918.09;5085427;28;20514;-75
2021/06/21 08:21:24;;;;;;;11.02;2.42;;;;;;;22.37;48.94;94918.22;5088544;28;20435;-75
2021/06/21 08:23:50;;;;;;;8.50;2.47;;;;;;;22.44;49.10;94918.34;5100903;28;20036;-77
2021/06/21 08:26:16;;;;;;;12.55;2.88;;;;;;;22.39;48.93;94921.34;5097588;28;20039;-75
2021/06/21 08:28:41;;;;;;;9.27;2.33;;;;;;;22.42;48.91;94913.34;5093582;28;20048;-76
2021/06/21 08:31:07;;;;;;;9.63;2.42;;;;;;;22.61;48.60;94917.84;5100423;28;20412;-75
2021/06/21 08:33:33;;;;;;;14.75;2.53;;;;;;;22.73;47.83;94913.38;5095900;28;20032;-74
2021/06/21 08:35:58;;;;;;;11.20;2.33;;;;;;;22.69;48.57;94920.63;5089824;28;20448;-75
2021/06/21 08:38:24;;;;;;;8.93;2.40;;;;;;;22.69;48.46;94912.59;5097176;28;20074;-75
2021/06/21 08:40:49;;;;;;;10.48;2.53;;;;;;;22.64;49.26;94919.81;5094087;28;20051;-74
2021/06/21 08:43:15;;;;;;;10.50;2.45;;;;;;;22.66;48.97;94914.09;5097283;28;20358;-74
2021/06/21 08:45:41;;;;;;;11.82;2.25;;;;;;;22.58;48.03;94923.91;5091019;28;20067;-74
2021/06/21 08:48:08;;;;;;;10.73;2.50;;;;;;;22.84;48.57;94920.47;5087289;28;20096;-74
2021/06/21 08:50:36;;;;;;;11.57;2.45;;;;;;;22.85;48.00;94921.22;5098251;28;20381;-74
2021/06/21 08:53:02;;;;;;;10.35;2.80;;;;;;;22.76;47.28;94918.06;5092440;28;20075;-75
2021/06/21 08:55:28;;;;;;;11.65;2.40;;;;;;;22.87;47.38;94913.63;5080568;28;20063;-75
2021/06/21 08:57:53;;;;;;;11.93;2.67;;;;;;;23.15;46.45;94917.81;5071030;28;20098;-74
2021/06/21 09:00:20;;;;;;;11.45;2.88;;;;;;;23.23;46.24;94908.72;5088965;28;20032;-76
2021/06/21 09:02:47;;;;;;;9.68;2.58;;;;;;;23.10;45.89;94910.84;5096016;28;20048;-75
2021/06/21 09:05:14;;;;;;;9.82;2.30;;;;;;;23.17;47.47;94910.94;5089505;28;20036;-76
2021/06/21 09:07:39;;;;;;;9.63;2.40;;;;;;;23.43;45.37;94912.03;5090194;28;20059;-75
2021/06/21 09:10:29;;;;;;;11.60;2.60;;;;;;;23.59;45.86;94911.00;5089551;28;20126;-75
2021/06/21 09:13:04;;;;;;;12.10;2.35;;;;;;;23.76;45.05;94912.34;5090778;28;20054;-73
2021/06/21 09:15:31;;;;;;;11.55;2.65;;;;;;;23.63;44.69;94907.25;5092190;28;20039;-73
2021/06/21 09:17:57;;;;;;;7.43;2.25;;;;;;;23.60;43.55;94894.53;5077405;28;20043;-74
2021/06/21 09:20:23;;;;;;;9.35;2.40;;;;;;;23.71;45.41;94905.41;5089791;28;20040;-73
2021/06/21 09:22:54;;;;;;;12.27;2.72;;;;;;;23.78;44.30;94899.31;5091224;28;20039;-72
2021/06/21 09:25:19;;;;;;;10.93;2.72;;;;;;;23.78;44.29;94899.31;5094328;28;20047;-74
2021/06/21 09:27:55;;;;;;;10.02;2.75;;;;;;;23.81;45.30;94903.97;5095435;28;20047;-74
2021/06/21 09:30:23;;;;;;;7.75;2.22;;;;;;;24.08;43.08;94903.81;5101476;28;20047;-73
2021/06/21 09:32:51;;;;;;;12.35;2.70;;;;;;;24.10;43.75;94915.00;5090579;28;20051;-73
2021/06/21 09:35:25;;;;;;;8.48;2.33;;;;;;;24.26;43.15;94907.44;5091742;28;20036;-73
2021/06/21 09:37:52;;;;;;;7.25;2.35;;;;;;;24.47;42.10;94911.44;5091676;28;20084;-75
2021/06/21 09:40:36;;;;;;;9.93;2.28;;;;;;;24.55;42.75;94910.31;5087463;28;20119;-74
2021/06/21 09:43:27;;;;;;;8.73;2.33;;;;;;;24.51;41.70;94906.84;5095857;28;20040;-71
2021/06/21 09:46:02;;;;;;;9.10;2.35;;;;;;;24.28;41.49;94905.16;5095099;28;20495;-74
2021/06/21 09:48:41;;;;;;;9.57;2.50;;;;;;;24.30;42.72;94904.78;5080284;28;20044;-74
2021/06/21 09:51:27;;;;;;;11.45;2.47;;;;;;;24.53;41.34;94893.81;5078762;28;20032;-74
2021/06/21 09:54:06;;;;;;;10.23;3.03;;;;;;;24.69;41.08;94891.63;5096123;28;20055;-73
2021/06/21 09:56:48;;;;;;;10.63;2.97;;;;;;;24.59;43.02;94896.91;5089987;28;20036;-73
2021/06/21 09:59:20;;;;;;;9.13;2.25;;;;;;;24.79;42.04;94892.81;5095392;28;20542;-73
2021/06/21 10:02:00;;;;;;;8.80;2.60;;;;;;;24.93;42.19;94894.84;5096739;28;20413;-75
2021/06/21 10:04:26;;;;;;;10.52;2.65;;;;;;;25.02;42.09;94892.56;5096975;28;20094;-74
2021/06/21 10:06:53;;;;;;;10.20;2.80;;;;;;;25.48;43.08;94893.16;5086586;28;20035;-76
2021/06/21 10:09:18;;;;;;;13.43;3.03;;;;;;;25.50;40.49;94896.22;5094358;28;20120;-74
2021/06/21 10:11:45;;;;;;;8.20;2.20;;;;;;;25.31;41.88;94891.91;5093283;28;20032;-73
2021/06/21 10:14:16;;;;;;;10.80;2.80;;;;;;;25.67;39.73;94892.78;5093273;28;20268;-73
2021/06/21 10:16:47;;;;;;;9.73;2.78;;;;;;;25.80;40.13;94889.75;5090755;28;20388;-74
2021/06/21 10:19:14;;;;;;;8.75;2.70;;;;;;;25.92;39.81;94882.06;5089847;28;20058;-74
2021/06/21 10:21:44;;;;;;;9.85;2.53;;;;;;;26.26;38.65;94886.34;5095605;28;20058;-74
2021/06/21 10:24:09;;;;;;;13.88;3.22;;;;;;;26.34;39.43;94874.38;5088244;28;20037;-78
2021/06/21 10:26:39;;;;;;;13.52;3.00;;;;;;;26.58;38.68;94875.50;5089118;28;20069;-72
2021/06/21 10:29:06;;;;;;;16.10;3.15;;;;;;;26.78;39.00;94873.19;5093071;28;20040;-71
2021/06/21 10:31:32;;;;;;;15.93;3.08;;;;;;;27.23;39.15;94869.19;5092703;28;20036;-78
2021/06/21 10:34:04;;;;;;;12.00;2.83;;;;;;;27.63;37.14;94861.66;5092206;28;20493;-72
2021/06/21 10:36:54;;;;;;;9.27;2.60;;;;;;;27.94;35.47;94865.31;5092959;28;20401;-71
2021/06/21 10:39:25;;;;;;;15.38;3.00;;;;;;;28.02;36.11;94866.03;5092874;28;20049;-73
2021/06/21 10:42:10;;;;;;;13.55;2.78;;;;;;;28.30;35.34;94864.25;5091451;28;20493;-72
2021/06/21 10:44:41;;;;;;;13.05;3.25;;;;;;;28.24;35.66;94865.88;5090332;28;20048;-72
2021/06/21 10:47:24;;;;;;;14.07;2.75;;;;;;;28.44;34.84;94864.13;5086530;28;20040;-71
2021/06/21 10:49:53;;;;;;;20.08;3.40;;;;;;;28.69;34.79;94865.84;5076798;28;20036;-72
2021/06/21 10:52:38;;;;;;;11.98;2.65;;;;;;;28.93;33.64;94855.91;5094485;28;20032;-72
2021/06/21 10:57:54;;;;;;;14.77;3.10;;;;;;;29.10;33.67;94861.53;5088107;28;20052;-72
2021/06/21 11:00:38;;;;;;;12.73;2.72;;;;;;;28.66;34.30;94863.94;5092540;28;20040;-71
2021/06/21 11:03:23;;;;;;;;;;;;;;;29.50;33.61;94853.72;5091894;28;20044;-71
2021/06/21 11:05:50;;;;;;;10.63;2.78;;;;;;;30.67;31.94;94854.22;5086812;28;19920;-71
2021/06/21 11:08:19;;;;;;;10.18;2.75;;;;;;;30.89;31.26;94854.59;5091924;28;20044;-70
2021/06/21 11:10:49;;;;;;;10.27;3.00;;;;;;;31.61;30.58;94848.47;5086253;28;20451;-71
2021/06/21 11:13:33;;;;;;;12.30;2.90;;;;;;;32.25;28.59;94850.91;5092485;28;20047;-72
2021/06/21 11:16:18;;;;;;;12.85;2.65;;;;;;;32.07;29.16;94845.13;5089714;28;20075;-73
2021/06/21 11:18:46;;;;;;;9.52;2.80;;;;;;;31.58;29.78;94849.31;5074437;28;20040;-72
2021/06/21 11:21:18;;;;;;;15.13;3.10;;;;;;;31.60;29.41;94852.38;5083979;28;20047;-71
2021/06/21 11:23:46;;;;;;;12.75;3.13;;;;;;;31.71;29.02;94848.69;5077666;28;20090;-71
2021/06/21 11:26:12;;;;;;;9.50;2.80;;;;;;;32.18;27.80;94851.06;5090067;28;20047;-72
2021/06/21 11:28:46;;;;;;;12.52;3.08;;;;;;;32.20;28.09;94848.69;5091545;28;20044;-71
2021/06/21 11:31:25;;;;;;;13.07;3.20;;;;;;;32.35;29.01;94853.78;5091359;28;20385;-71
2021/06/21 11:33:54;;;;;;;10.95;3.13;;;;;;;32.47;28.08;94850.38;5087222;28;20503;-71
2021/06/21 11:36:42;;;;;;;15.88;3.28;;;;;;;31.31;29.93;94837.88;5085437;28;20456;-72
2021/06/21 11:39:22;;;;;;;11.88;3.38;;;;;;;30.83;30.41;94846.16;5090498;28;20036;-72